Vaaraa aiheuttavia sääilmiöitä ei ole odotettavissa.    Ei varoituksia

Webkamera Lisätietoa Webcam


Yksityisiä sääasemia lähellä:

Sääasema Juupajoki

Sääasema Orivesi

Sääasema Muurame

Sääasema Jyväskylä

Sääasema Vihtavuori


Löydät sääaseman tiedot myös:

Finland Weather Exchange

European Weather Network

Weather Underground

AWEKAS

Windy.com



Säätiedot lähimmiltä METAR asemilta

   
EFHA - Halli (Fin-Afb), Finland
Etäisyys asemalta: Kaakko 25 km
Päivitetty: 10.07.2020 22:50
Selkeää  
Selkeää  
   Tuuli: Etelä 1.5 m/s
Tuuli: Etelä 1.5 m/s
Lämpötila: 13°C
Kastepiste: 9°C
Kosteus: 77%
Ilmanpaine: 1008 hPa
Näkyvyys: Enemmän kuin 10 km
Pilvitiedot: Selkeää
EFHA 101950Z AUTO 19003KT 150V210 CAVOK 13/09 Q1008
EFJY - Jyvaskyla (Mil/Civ), Finland
Etäisyys asemalta: Koillinen 75 km
Päivitetty: 10.07.2020 22:50
Selkeää  
Selkeää  
   Tuuli: Vaihtelee 0.5 m/s
Tuuli: Vaihtelee 0.5 m/s
Lämpötila: 10°C
Kastepiste: 9°C
Kosteus: 94%
Ilmanpaine: 1009 hPa
Näkyvyys: Enemmän kuin 10 km
Pilvitiedot: Selkeää
EFJY 101950Z AUTO VRB01KT CAVOK 10/09 Q1009
EFTP - Tampere/Pirkkala, Finland
Etäisyys asemalta: Lounas 81 km
Päivitetty: 10.07.2020 22:50
Selkeää  
Selkeää  
   Tuuli: Tyyntä
Tuuli: Tyyntä
Lämpötila: 11°C
Kastepiste: 10°C
Kosteus: 94%
Ilmanpaine: 1009 hPa
Näkyvyys: Enemmän kuin 10 km
Pilvitiedot: Selkeää
EFTP 101950Z AUTO 00000KT CAVOK 11/10 Q1009
EFSI - Seinajoki-Ilmajoki, Finland
Etäisyys asemalta: Luode 114 km
Päivitetty: 10.07.2020 22:50
Selkeää  
Selkeää  
   Tuuli: Länsi 1 m/s
Tuuli: Länsi 1 m/s
Lämpötila: 11°C
Kastepiste: 9°C
Kosteus: 88%
Ilmanpaine: 1008 hPa
Näkyvyys: Enemmän kuin 10 km
Pilvitiedot: Selkeää
EFSI 101950Z AUTO 26002KT CAVOK 11/09 Q1008
EFMI - Mikkeli, Finland
Etäisyys asemalta: Itäkaakko 147 km
Päivitetty: 10.07.2020 22:50
Sumua, Vähäistä pilvisyyttä  
Sumua, Vähäistä pilvisyyttä  
   Tuuli: Tyyntä
Tuuli: Tyyntä
Pilvisyys: Vähäistä pilvisyyttä
Näkyvyys: 0 km
Pilvitiedot: Vähäistä pilvisyyttä 2225 m
EFMI 101950Z AUTO 00000KT 0200 FG FEW073 ///// Q////
EFPO - Pori (Mil/Civ), Finland
Etäisyys asemalta: Länsilounas 154 km
Päivitetty: 10.07.2020 22:50
Selkeää  
Selkeää  
   Tuuli: Länsiluode 1 m/s
Tuuli: Länsiluode 1 m/s
Lämpötila: 12°C
Kastepiste: 9°C
Kosteus: 82%
Ilmanpaine: 1008 hPa
Näkyvyys: Enemmän kuin 10 km
Pilvitiedot: Selkeää
EFPO 101950Z AUTO 30002KT CAVOK 12/09 Q1008
EFUT - Utti (Fin-Afb), Finland
Etäisyys asemalta: Kaakko 180 km
Päivitetty: 10.07.2020 22:50
Selkeää  
Selkeää  
   Tuuli: Eteläkaakko 3.1 m/s
Tuuli: Eteläkaakko 3.1 m/s
Lämpötila: 14°C
Kastepiste: 9°C
Kosteus: 72%
Ilmanpaine: 1010 hPa
Näkyvyys: Enemmän kuin 10 km
Pilvitiedot: Selkeää
EFUT 101950Z AUTO 16006KT CAVOK 14/09 Q1010
EFVA - Vaasa, Finland
Etäisyys asemalta: Luode 180 km
Päivitetty: 10.07.2020 22:50
Selkeää  
Selkeää  
   Tuuli: Lounas 1.5 m/s
Tuuli: Lounas 1.5 m/s
Lämpötila: 14°C
Kastepiste: 9°C
Kosteus: 72%
Ilmanpaine: 1008 hPa
Näkyvyys: Enemmän kuin 10 km
Pilvitiedot: Selkeää
EFVA 101950Z AUTO 23003KT CAVOK 14/09 Q1008
EFHK - Helsinki/Vantaa, Finland
Etäisyys asemalta: Etelä 191 km
Päivitetty: 10.07.2020 22:50
Selkeää  
Selkeää  
   Tuuli: Itäkaakko 2.1 m/s
Tuuli: Itäkaakko 2.1 m/s
Lämpötila: 14°C
Kastepiste: 11°C
Kosteus: 82%
Ilmanpaine: 1009 hPa
Näkyvyys: Enemmän kuin 10 km
Pilvitiedot: Selkeää
EFHK 101950Z 11004KT CAVOK 14/11 Q1009 NOSIG

Alkuperäinen skripti  Saratoga-weather.org Sovitettu myös templatelle  Weerstation Leuven

Laitteet joita käytämme:

Sääasema
Davis VP2

Sääasemaohjelma
Cumulus

Sääaseman palvelin
HP ProBook 6460b

Palveluntarjoaja
Radicenter

Davis VP2

Cumulus

HP ProBook 6460b

Radicenter




Flag Counter Cumulus Top Weather Sites